sensor_id;sensor_type;location;lat;lon;timestamp;temperature;humidity
212;DHT22;16228;48.800;9.002;2023-10-08T00:02:10;12.50;96.90
212;DHT22;16228;48.800;9.002;2023-10-08T00:04:40;12.50;96.90
212;DHT22;16228;48.800;9.002;2023-10-08T00:07:10;12.50;96.90
212;DHT22;16228;48.800;9.002;2023-10-08T00:09:37;12.60;96.90
212;DHT22;16228;48.800;9.002;2023-10-08T00:12:05;12.60;96.90
212;DHT22;16228;48.800;9.002;2023-10-08T00:14:33;12.60;96.90
212;DHT22;16228;48.800;9.002;2023-10-08T00:17:11;12.70;96.90
212;DHT22;16228;48.800;9.002;2023-10-08T00:19:38;12.70;96.90
212;DHT22;16228;48.800;9.002;2023-10-08T00:22:05;12.70;96.90
212;DHT22;16228;48.800;9.002;2023-10-08T00:24:33;12.70;96.90
212;DHT22;16228;48.800;9.002;2023-10-08T00:27:00;12.80;96.90
212;DHT22;16228;48.800;9.002;2023-10-08T00:29:28;12.80;96.90
212;DHT22;16228;48.800;9.002;2023-10-08T00:31:57;12.80;96.90
212;DHT22;16228;48.800;9.002;2023-10-08T00:34:26;12.80;96.90
212;DHT22;16228;48.800;9.002;2023-10-08T00:36:53;12.80;96.90
212;DHT22;16228;48.800;9.002;2023-10-08T00:39:21;12.90;96.90
212;DHT22;16228;48.800;9.002;2023-10-08T00:41:53;12.90;96.90
212;DHT22;16228;48.800;9.002;2023-10-08T00:44:24;12.90;96.90
212;DHT22;16228;48.800;9.002;2023-10-08T00:46:56;13.00;96.90
212;DHT22;16228;48.800;9.002;2023-10-08T00:49:28;13.00;96.90
212;DHT22;16228;48.800;9.002;2023-10-08T00:52:14;13.00;96.90
212;DHT22;16228;48.800;9.002;2023-10-08T00:54:56;13.00;96.90
212;DHT22;16228;48.800;9.002;2023-10-08T00:57:35;13.00;96.90
212;DHT22;16228;48.800;9.002;2023-10-08T01:00:08;13.00;96.90
212;DHT22;16228;48.800;9.002;2023-10-08T01:02:42;13.00;96.90
212;DHT22;16228;48.800;9.002;2023-10-08T01:05:14;13.10;96.90
212;DHT22;16228;48.800;9.002;2023-10-08T01:07:46;13.10;96.90
212;DHT22;16228;48.800;9.002;2023-10-08T01:10:16;13.10;96.90
212;DHT22;16228;48.800;9.002;2023-10-08T01:12:46;13.00;96.90
212;DHT22;16228;48.800;9.002;2023-10-08T01:15:29;13.00;96.90
212;DHT22;16228;48.800;9.002;2023-10-08T01:18:01;13.00;96.90
212;DHT22;16228;48.800;9.002;2023-10-08T01:20:32;12.90;96.90
212;DHT22;16228;48.800;9.002;2023-10-08T01:23:06;12.90;96.90
212;DHT22;16228;48.800;9.002;2023-10-08T01:25:38;12.90;96.90
212;DHT22;16228;48.800;9.002;2023-10-08T01:28:07;12.80;96.90
212;DHT22;16228;48.800;9.002;2023-10-08T01:30:41;12.70;96.90
212;DHT22;16228;48.800;9.002;2023-10-08T01:33:12;12.70;96.90
212;DHT22;16228;48.800;9.002;2023-10-08T01:35:41;12.60;96.90
212;DHT22;16228;48.800;9.002;2023-10-08T01:38:10;12.50;96.90
212;DHT22;16228;48.800;9.002;2023-10-08T01:40:42;12.50;96.90
212;DHT22;16228;48.800;9.002;2023-10-08T01:43:09;12.40;96.90
212;DHT22;16228;48.800;9.002;2023-10-08T01:45:39;12.30;96.90
212;DHT22;16228;48.800;9.002;2023-10-08T01:48:08;12.30;96.90
212;DHT22;16228;48.800;9.002;2023-10-08T01:50:37;12.30;96.90
212;DHT22;16228;48.800;9.002;2023-10-08T01:53:04;12.20;96.90
212;DHT22;16228;48.800;9.002;2023-10-08T01:55:36;12.10;96.90
212;DHT22;16228;48.800;9.002;2023-10-08T01:58:15;12.10;96.90
212;DHT22;16228;48.800;9.002;2023-10-08T02:00:44;12.00;96.90
212;DHT22;16228;48.800;9.002;2023-10-08T02:03:12;12.00;96.90
212;DHT22;16228;48.800;9.002;2023-10-08T02:05:41;12.00;96.90
212;DHT22;16228;48.800;9.002;2023-10-08T02:08:09;11.90;96.90
212;DHT22;16228;48.800;9.002;2023-10-08T02:10:38;11.90;96.90
212;DHT22;16228;48.800;9.002;2023-10-08T02:13:07;11.90;96.90
212;DHT22;16228;48.800;9.002;2023-10-08T02:15:35;11.90;96.90
212;DHT22;16228;48.800;9.002;2023-10-08T02:18:05;11.80;96.90
212;DHT22;16228;48.800;9.002;2023-10-08T02:20:32;11.80;96.90
212;DHT22;16228;48.800;9.002;2023-10-08T02:22:59;11.80;96.90
212;DHT22;16228;48.800;9.002;2023-10-08T02:25:26;11.80;96.90
212;DHT22;16228;48.800;9.002;2023-10-08T02:27:55;11.70;96.90
212;DHT22;16228;48.800;9.002;2023-10-08T02:30:23;11.60;96.90
212;DHT22;16228;48.800;9.002;2023-10-08T02:32:50;11.60;96.90
212;DHT22;16228;48.800;9.002;2023-10-08T02:35:18;11.50;96.90
212;DHT22;16228;48.800;9.002;2023-10-08T02:37:45;11.50;96.90
212;DHT22;16228;48.800;9.002;2023-10-08T02:40:12;11.40;96.90
212;DHT22;16228;48.800;9.002;2023-10-08T02:42:47;11.40;96.90
212;DHT22;16228;48.800;9.002;2023-10-08T02:45:16;11.30;96.90
212;DHT22;16228;48.800;9.002;2023-10-08T02:47:44;11.20;96.90
212;DHT22;16228;48.800;9.002;2023-10-08T02:50:11;11.20;96.90
212;DHT22;16228;48.800;9.002;2023-10-08T02:52:42;11.20;96.90
212;DHT22;16228;48.800;9.002;2023-10-08T02:55:11;11.20;96.90
212;DHT22;16228;48.800;9.002;2023-10-08T02:57:49;11.20;96.90
212;DHT22;16228;48.800;9.002;2023-10-08T03:00:19;11.10;96.90
212;DHT22;16228;48.800;9.002;2023-10-08T03:02:46;11.00;96.90
212;DHT22;16228;48.800;9.002;2023-10-08T03:05:13;11.00;96.90
212;DHT22;16228;48.800;9.002;2023-10-08T03:07:43;11.00;96.90
212;DHT22;16228;48.800;9.002;2023-10-08T03:10:10;10.90;96.90
212;DHT22;16228;48.800;9.002;2023-10-08T03:12:45;10.90;96.90
212;DHT22;16228;48.800;9.002;2023-10-08T03:15:14;10.90;96.90
212;DHT22;16228;48.800;9.002;2023-10-08T03:17:56;10.80;96.90
212;DHT22;16228;48.800;9.002;2023-10-08T03:20:35;10.80;96.90
212;DHT22;16228;48.800;9.002;2023-10-08T03:23:09;10.80;96.90
212;DHT22;16228;48.800;9.002;2023-10-08T03:25:51;10.80;96.90
212;DHT22;16228;48.800;9.002;2023-10-08T03:28:22;10.70;96.90
212;DHT22;16228;48.800;9.002;2023-10-08T03:30:51;10.70;96.90
212;DHT22;16228;48.800;9.002;2023-10-08T03:33:30;10.70;96.90
212;DHT22;16228;48.800;9.002;2023-10-08T03:36:00;10.70;96.90
212;DHT22;16228;48.800;9.002;2023-10-08T03:38:36;10.70;96.90
212;DHT22;16228;48.800;9.002;2023-10-08T03:41:21;10.70;96.90
212;DHT22;16228;48.800;9.002;2023-10-08T03:43:53;10.70;96.90
212;DHT22;16228;48.800;9.002;2023-10-08T03:46:28;10.70;96.90
212;DHT22;16228;48.800;9.002;2023-10-08T03:48:56;10.70;96.90
212;DHT22;16228;48.800;9.002;2023-10-08T03:51:30;10.70;96.90
212;DHT22;16228;48.800;9.002;2023-10-08T03:54:05;10.70;96.90
212;DHT22;16228;48.800;9.002;2023-10-08T03:56:44;10.60;96.90
212;DHT22;16228;48.800;9.002;2023-10-08T03:59:14;10.60;96.90
212;DHT22;16228;48.800;9.002;2023-10-08T04:01:46;10.50;96.90
212;DHT22;16228;48.800;9.002;2023-10-08T04:04:16;10.50;96.90
212;DHT22;16228;48.800;9.002;2023-10-08T04:06:43;10.50;96.90
212;DHT22;16228;48.800;9.002;2023-10-08T04:09:15;10.50;96.90
212;DHT22;16228;48.800;9.002;2023-10-08T04:11:52;10.40;96.90
212;DHT22;16228;48.800;9.002;2023-10-08T04:14:20;10.40;96.90
212;DHT22;16228;48.800;9.002;2023-10-08T04:16:47;10.40;96.90
212;DHT22;16228;48.800;9.002;2023-10-08T04:19:19;10.40;96.90
212;DHT22;16228;48.800;9.002;2023-10-08T04:21:47;10.30;96.90
212;DHT22;16228;48.800;9.002;2023-10-08T04:24:21;10.30;96.90
212;DHT22;16228;48.800;9.002;2023-10-08T04:26:57;10.30;96.90
212;DHT22;16228;48.800;9.002;2023-10-08T04:29:25;10.30;96.90
212;DHT22;16228;48.800;9.002;2023-10-08T04:31:57;10.30;96.90
212;DHT22;16228;48.800;9.002;2023-10-08T04:34:34;10.20;96.90
212;DHT22;16228;48.800;9.002;2023-10-08T04:37:02;10.20;96.90
212;DHT22;16228;48.800;9.002;2023-10-08T04:39:36;10.30;96.90
212;DHT22;16228;48.800;9.002;2023-10-08T04:42:05;10.30;96.90
212;DHT22;16228;48.800;9.002;2023-10-08T04:44:33;10.30;96.90
212;DHT22;16228;48.800;9.002;2023-10-08T04:47:00;10.30;96.90
212;DHT22;16228;48.800;9.002;2023-10-08T04:49:34;10.30;96.90
212;DHT22;16228;48.800;9.002;2023-10-08T04:52:05;10.30;96.90
212;DHT22;16228;48.800;9.002;2023-10-08T04:54:35;10.30;96.90
212;DHT22;16228;48.800;9.002;2023-10-08T04:57:07;10.30;96.90
212;DHT22;16228;48.800;9.002;2023-10-08T04:59:41;10.30;96.90
212;DHT22;16228;48.800;9.002;2023-10-08T05:02:09;10.30;96.90
212;DHT22;16228;48.800;9.002;2023-10-08T05:04:47;10.30;96.90
212;DHT22;16228;48.800;9.002;2023-10-08T05:07:47;10.30;96.90
212;DHT22;16228;48.800;9.002;2023-10-08T05:10:54;10.30;96.90
212;DHT22;16228;48.800;9.002;2023-10-08T05:13:26;10.30;96.90
212;DHT22;16228;48.800;9.002;2023-10-08T05:15:59;10.30;96.90
212;DHT22;16228;48.800;9.002;2023-10-08T05:18:55;10.30;96.90
212;DHT22;16228;48.800;9.002;2023-10-08T05:21:41;10.20;96.90
212;DHT22;16228;48.800;9.002;2023-10-08T05:24:28;10.20;96.90
212;DHT22;16228;48.800;9.002;2023-10-08T05:27:04;10.20;96.90
212;DHT22;16228;48.800;9.002;2023-10-08T05:30:03;10.10;96.90
212;DHT22;16228;48.800;9.002;2023-10-08T05:32:41;10.10;96.90
212;DHT22;16228;48.800;9.002;2023-10-08T05:35:27;10.00;96.90
212;DHT22;16228;48.800;9.002;2023-10-08T05:38:16;10.00;96.90
212;DHT22;16228;48.800;9.002;2023-10-08T05:40:50;10.00;96.90
212;DHT22;16228;48.800;9.002;2023-10-08T05:43:53;10.10;96.90
212;DHT22;16228;48.800;9.002;2023-10-08T05:46:39;10.00;96.90
212;DHT22;16228;48.800;9.002;2023-10-08T05:49:13;10.00;96.90
212;DHT22;16228;48.800;9.002;2023-10-08T05:52:02;10.00;96.90
212;DHT22;16228;48.800;9.002;2023-10-08T05:54:44;10.10;96.90
212;DHT22;16228;48.800;9.002;2023-10-08T05:57:34;10.10;96.90
212;DHT22;16228;48.800;9.002;2023-10-08T06:00:05;10.20;96.90
212;DHT22;16228;48.800;9.002;2023-10-08T06:03:13;10.20;96.90
212;DHT22;16228;48.800;9.002;2023-10-08T06:05:59;10.20;96.90
212;DHT22;16228;48.800;9.002;2023-10-08T06:08:43;10.30;96.90
212;DHT22;16228;48.800;9.002;2023-10-08T06:11:19;10.30;96.90
212;DHT22;16228;48.800;9.002;2023-10-08T06:14:03;10.40;96.90
212;DHT22;16228;48.800;9.002;2023-10-08T06:16:39;10.40;96.90
212;DHT22;16228;48.800;9.002;2023-10-08T06:19:10;10.50;96.90
212;DHT22;16228;48.800;9.002;2023-10-08T06:21:39;10.60;96.90
212;DHT22;16228;48.800;9.002;2023-10-08T06:24:07;10.60;96.90
212;DHT22;16228;48.800;9.002;2023-10-08T06:26:38;10.70;96.90
212;DHT22;16228;48.800;9.002;2023-10-08T06:29:09;10.70;96.90
212;DHT22;16228;48.800;9.002;2023-10-08T06:31:45;10.80;96.90
212;DHT22;16228;48.800;9.002;2023-10-08T06:34:18;10.80;96.90
212;DHT22;16228;48.800;9.002;2023-10-08T06:36:47;10.90;96.90
212;DHT22;16228;48.800;9.002;2023-10-08T06:39:19;10.90;96.90
212;DHT22;16228;48.800;9.002;2023-10-08T06:41:53;11.00;96.90
212;DHT22;16228;48.800;9.002;2023-10-08T06:44:21;11.10;96.90
212;DHT22;16228;48.800;9.002;2023-10-08T06:46:48;11.20;96.90
212;DHT22;16228;48.800;9.002;2023-10-08T06:49:18;11.30;96.90
212;DHT22;16228;48.800;9.002;2023-10-08T06:51:50;11.40;96.90
212;DHT22;16228;48.800;9.002;2023-10-08T06:54:17;11.50;96.90
212;DHT22;16228;48.800;9.002;2023-10-08T06:56:44;11.70;96.90
212;DHT22;16228;48.800;9.002;2023-10-08T06:59:18;11.90;96.90
212;DHT22;16228;48.800;9.002;2023-10-08T07:01:48;12.10;96.90
212;DHT22;16228;48.800;9.002;2023-10-08T07:04:17;12.30;96.90
212;DHT22;16228;48.800;9.002;2023-10-08T07:06:45;12.50;96.90
212;DHT22;16228;48.800;9.002;2023-10-08T07:09:13;12.70;96.90
212;DHT22;16228;48.800;9.002;2023-10-08T07:11:55;13.00;96.90
212;DHT22;16228;48.800;9.002;2023-10-08T07:14:24;13.30;96.90
212;DHT22;16228;48.800;9.002;2023-10-08T07:16:53;13.50;96.90
212;DHT22;16228;48.800;9.002;2023-10-08T07:19:21;13.80;96.90
212;DHT22;16228;48.800;9.002;2023-10-08T07:21:58;14.00;96.90
212;DHT22;16228;48.800;9.002;2023-10-08T07:24:30;14.20;96.90
212;DHT22;16228;48.800;9.002;2023-10-08T07:27:01;14.50;96.90
212;DHT22;16228;48.800;9.002;2023-10-08T07:29:35;14.90;96.90
212;DHT22;16228;48.800;9.002;2023-10-08T07:32:02;15.30;96.90
212;DHT22;16228;48.800;9.002;2023-10-08T07:34:35;15.60;96.90
212;DHT22;16228;48.800;9.002;2023-10-08T07:37:03;15.70;96.90
212;DHT22;16228;48.800;9.002;2023-10-08T07:39:31;15.90;96.90
212;DHT22;16228;48.800;9.002;2023-10-08T07:42:09;16.20;96.90
212;DHT22;16228;48.800;9.002;2023-10-08T07:44:38;16.40;96.90
212;DHT22;16228;48.800;9.002;2023-10-08T07:47:06;16.60;96.90
212;DHT22;16228;48.800;9.002;2023-10-08T07:49:36;16.80;96.90
212;DHT22;16228;48.800;9.002;2023-10-08T07:52:03;17.00;96.90
212;DHT22;16228;48.800;9.002;2023-10-08T07:54:31;17.10;96.90
212;DHT22;16228;48.800;9.002;2023-10-08T07:57:01;17.20;96.90
212;DHT22;16228;48.800;9.002;2023-10-08T07:59:35;17.20;96.90
212;DHT22;16228;48.800;9.002;2023-10-08T08:02:05;17.30;96.90
212;DHT22;16228;48.800;9.002;2023-10-08T08:04:35;17.40;96.90
212;DHT22;16228;48.800;9.002;2023-10-08T08:07:03;17.40;96.90
212;DHT22;16228;48.800;9.002;2023-10-08T08:09:31;17.50;96.90
212;DHT22;16228;48.800;9.002;2023-10-08T08:12:05;17.60;96.90
212;DHT22;16228;48.800;9.002;2023-10-08T08:14:34;17.70;96.90
212;DHT22;16228;48.800;9.002;2023-10-08T08:17:06;17.80;96.90
212;DHT22;16228;48.800;9.002;2023-10-08T08:19:40;18.00;96.90
212;DHT22;16228;48.800;9.002;2023-10-08T08:22:07;18.10;96.90
212;DHT22;16228;48.800;9.002;2023-10-08T08:24:34;18.20;96.90
212;DHT22;16228;48.800;9.002;2023-10-08T08:27:03;18.30;96.90
212;DHT22;16228;48.800;9.002;2023-10-08T08:29:37;18.40;96.90
212;DHT22;16228;48.800;9.002;2023-10-08T08:32:12;18.80;96.90
212;DHT22;16228;48.800;9.002;2023-10-08T08:34:41;19.40;96.90
212;DHT22;16228;48.800;9.002;2023-10-08T08:37:10;19.80;96.90
212;DHT22;16228;48.800;9.002;2023-10-08T08:39:37;20.40;96.90
212;DHT22;16228;48.800;9.002;2023-10-08T08:42:04;20.70;96.90
212;DHT22;16228;48.800;9.002;2023-10-08T08:44:33;21.00;96.90
212;DHT22;16228;48.800;9.002;2023-10-08T08:47:01;21.20;96.90
212;DHT22;16228;48.800;9.002;2023-10-08T08:49:35;21.60;96.80
212;DHT22;16228;48.800;9.002;2023-10-08T08:52:03;22.00;96.90
212;DHT22;16228;48.800;9.002;2023-10-08T08:54:31;22.50;89.70
212;DHT22;16228;48.800;9.002;2023-10-08T08:56:59;22.90;86.20
212;DHT22;16228;48.800;9.002;2023-10-08T08:59:30;23.30;85.00
212;DHT22;16228;48.800;9.002;2023-10-08T09:01:58;23.70;84.40
212;DHT22;16228;48.800;9.002;2023-10-08T09:04:29;24.00;83.00
212;DHT22;16228;48.800;9.002;2023-10-08T09:07:00;24.60;83.30
212;DHT22;16228;48.800;9.002;2023-10-08T09:09:33;25.40;81.90
212;DHT22;16228;48.800;9.002;2023-10-08T09:12:01;26.20;78.20
212;DHT22;16228;48.800;9.002;2023-10-08T09:14:31;27.40;76.40
212;DHT22;16228;48.800;9.002;2023-10-08T09:17:00;28.80;76.60
212;DHT22;16228;48.800;9.002;2023-10-08T09:19:30;30.20;72.70
212;DHT22;16228;48.800;9.002;2023-10-08T09:22:04;31.50;72.80
212;DHT22;16228;48.800;9.002;2023-10-08T09:24:32;32.60;64.40
212;DHT22;16228;48.800;9.002;2023-10-08T09:27:02;33.50;62.70
212;DHT22;16228;48.800;9.002;2023-10-08T09:29:30;34.00;60.30
212;DHT22;16228;48.800;9.002;2023-10-08T09:31:58;34.30;60.80
212;DHT22;16228;48.800;9.002;2023-10-08T09:34:29;34.70;67.50
212;DHT22;16228;48.800;9.002;2023-10-08T09:36:58;34.40;65.30
212;DHT22;16228;48.800;9.002;2023-10-08T09:39:28;32.50;66.20
212;DHT22;16228;48.800;9.002;2023-10-08T09:42:01;32.20;66.90
212;DHT22;16228;48.800;9.002;2023-10-08T09:44:29;31.20;65.20
212;DHT22;16228;48.800;9.002;2023-10-08T09:47:02;30.40;70.10
212;DHT22;16228;48.800;9.002;2023-10-08T09:49:31;29.80;66.90
212;DHT22;16228;48.800;9.002;2023-10-08T09:52:03;29.20;69.80
212;DHT22;16228;48.800;9.002;2023-10-08T09:54:37;28.70;70.90
212;DHT22;16228;48.800;9.002;2023-10-08T09:57:07;28.30;71.20
212;DHT22;16228;48.800;9.002;2023-10-08T09:59:35;28.10;78.80
212;DHT22;16228;48.800;9.002;2023-10-08T10:02:04;27.50;79.40
212;DHT22;16228;48.800;9.002;2023-10-08T10:04:35;27.00;83.20
212;DHT22;16228;48.800;9.002;2023-10-08T10:07:09;26.70;85.50
212;DHT22;16228;48.800;9.002;2023-10-08T10:09:43;26.60;87.10
212;DHT22;16228;48.800;9.002;2023-10-08T10:12:11;26.60;86.90
212;DHT22;16228;48.800;9.002;2023-10-08T10:14:42;26.70;84.60
212;DHT22;16228;48.800;9.002;2023-10-08T10:17:12;27.10;82.60
212;DHT22;16228;48.800;9.002;2023-10-08T10:19:40;27.40;80.90
212;DHT22;16228;48.800;9.002;2023-10-08T10:22:13;27.50;84.40
212;DHT22;16228;48.800;9.002;2023-10-08T10:24:43;27.60;82.40
212;DHT22;16228;48.800;9.002;2023-10-08T10:27:15;27.60;83.90
212;DHT22;16228;48.800;9.002;2023-10-08T10:29:43;27.50;83.50
212;DHT22;16228;48.800;9.002;2023-10-08T10:32:13;27.50;85.00
212;DHT22;16228;48.800;9.002;2023-10-08T10:34:42;27.40;86.70
212;DHT22;16228;48.800;9.002;2023-10-08T10:37:10;27.40;82.00
212;DHT22;16228;48.800;9.002;2023-10-08T10:39:52;27.60;84.30
212;DHT22;16228;48.800;9.002;2023-10-08T10:42:21;28.20;75.90
212;DHT22;16228;48.800;9.002;2023-10-08T10:44:49;29.50;78.60
212;DHT22;16228;48.800;9.002;2023-10-08T10:47:19;31.00;74.00
212;DHT22;16228;48.800;9.002;2023-10-08T10:50:09;31.70;75.90
212;DHT22;16228;48.800;9.002;2023-10-08T10:52:52;31.70;74.10
212;DHT22;16228;48.800;9.002;2023-10-08T10:55:21;32.60;70.30
212;DHT22;16228;48.800;9.002;2023-10-08T10:57:50;33.10;72.10
212;DHT22;16228;48.800;9.002;2023-10-08T11:00:30;33.50;69.20
212;DHT22;16228;48.800;9.002;2023-10-08T11:03:22;33.60;64.10
212;DHT22;16228;48.800;9.002;2023-10-08T11:05:53;32.80;67.00
212;DHT22;16228;48.800;9.002;2023-10-08T11:08:22;32.00;67.10
212;DHT22;16228;48.800;9.002;2023-10-08T11:10:52;30.90;72.60
212;DHT22;16228;48.800;9.002;2023-10-08T11:13:24;30.20;73.20
212;DHT22;16228;48.800;9.002;2023-10-08T11:15:54;29.70;72.50
212;DHT22;16228;48.800;9.002;2023-10-08T11:18:26;29.40;76.00
212;DHT22;16228;48.800;9.002;2023-10-08T11:21:05;29.10;72.30
212;DHT22;16228;48.800;9.002;2023-10-08T11:23:42;28.80;73.00
212;DHT22;16228;48.800;9.002;2023-10-08T11:26:13;28.50;75.80
212;DHT22;16228;48.800;9.002;2023-10-08T11:28:42;28.50;80.10
212;DHT22;16228;48.800;9.002;2023-10-08T11:31:11;28.80;73.20
212;DHT22;16228;48.800;9.002;2023-10-08T11:33:40;29.70;73.90
212;DHT22;16228;48.800;9.002;2023-10-08T11:36:09;31.10;68.30
212;DHT22;16228;48.800;9.002;2023-10-08T11:38:44;32.60;67.90
212;DHT22;16228;48.800;9.002;2023-10-08T11:41:16;34.20;70.40
212;DHT22;16228;48.800;9.002;2023-10-08T11:43:54;35.60;65.70
212;DHT22;16228;48.800;9.002;2023-10-08T11:46:23;36.60;61.50
212;DHT22;16228;48.800;9.002;2023-10-08T11:48:53;37.40;57.10
212;DHT22;16228;48.800;9.002;2023-10-08T11:51:23;37.90;57.20
212;DHT22;16228;48.800;9.002;2023-10-08T11:53:50;38.40;56.70
212;DHT22;16228;48.800;9.002;2023-10-08T11:56:20;39.10;57.50
212;DHT22;16228;48.800;9.002;2023-10-08T11:58:50;39.30;58.90
212;DHT22;16228;48.800;9.002;2023-10-08T12:01:18;39.40;54.80
212;DHT22;16228;48.800;9.002;2023-10-08T12:03:46;39.70;51.50
212;DHT22;16228;48.800;9.002;2023-10-08T12:06:15;39.50;53.30
212;DHT22;16228;48.800;9.002;2023-10-08T12:08:45;39.30;54.80
212;DHT22;16228;48.800;9.002;2023-10-08T12:11:13;38.60;54.00
212;DHT22;16228;48.800;9.002;2023-10-08T12:13:40;38.00;56.70
212;DHT22;16228;48.800;9.002;2023-10-08T12:16:12;38.20;55.80
212;DHT22;16228;48.800;9.002;2023-10-08T12:18:46;38.30;56.70
212;DHT22;16228;48.800;9.002;2023-10-08T12:21:19;38.60;54.20
212;DHT22;16228;48.800;9.002;2023-10-08T12:23:46;38.90;54.10
212;DHT22;16228;48.800;9.002;2023-10-08T12:26:13;39.20;55.00
212;DHT22;16228;48.800;9.002;2023-10-08T12:28:45;39.60;52.70
212;DHT22;16228;48.800;9.002;2023-10-08T12:31:15;39.50;51.30
212;DHT22;16228;48.800;9.002;2023-10-08T12:33:43;39.70;50.70
212;DHT22;16228;48.800;9.002;2023-10-08T12:36:13;39.70;52.30
212;DHT22;16228;48.800;9.002;2023-10-08T12:38:42;39.40;51.20
212;DHT22;16228;48.800;9.002;2023-10-08T12:41:10;39.50;50.90
212;DHT22;16228;48.800;9.002;2023-10-08T12:46:12;39.90;48.00
212;DHT22;16228;48.800;9.002;2023-10-08T12:48:50;39.70;49.50
212;DHT22;16228;48.800;9.002;2023-10-08T12:51:20;39.40;49.70
212;DHT22;16228;48.800;9.002;2023-10-08T12:53:49;39.30;49.50
212;DHT22;16228;48.800;9.002;2023-10-08T12:56:24;39.00;49.90
212;DHT22;16228;48.800;9.002;2023-10-08T12:58:57;38.90;50.00
212;DHT22;16228;48.800;9.002;2023-10-08T13:01:26;38.80;52.10
212;DHT22;16228;48.800;9.002;2023-10-08T13:03:55;38.60;51.00
212;DHT22;16228;48.800;9.002;2023-10-08T13:06:27;38.50;51.90
212;DHT22;16228;48.800;9.002;2023-10-08T13:08:55;38.60;52.40
212;DHT22;16228;48.800;9.002;2023-10-08T13:11:24;38.60;51.30
212;DHT22;16228;48.800;9.002;2023-10-08T13:13:51;38.20;52.20
212;DHT22;16228;48.800;9.002;2023-10-08T13:16:19;38.20;51.00
212;DHT22;16228;48.800;9.002;2023-10-08T13:18:49;38.20;51.10
212;DHT22;16228;48.800;9.002;2023-10-08T13:21:16;38.10;53.20
212;DHT22;16228;48.800;9.002;2023-10-08T13:23:44;38.00;51.70
212;DHT22;16228;48.800;9.002;2023-10-08T13:26:12;37.90;52.70
212;DHT22;16228;48.800;9.002;2023-10-08T13:28:43;37.70;52.00
212;DHT22;16228;48.800;9.002;2023-10-08T13:31:11;37.60;53.20
212;DHT22;16228;48.800;9.002;2023-10-08T13:33:39;37.60;53.30
212;DHT22;16228;48.800;9.002;2023-10-08T13:36:10;37.20;53.10
212;DHT22;16228;48.800;9.002;2023-10-08T13:38:39;36.90;55.10
212;DHT22;16228;48.800;9.002;2023-10-08T13:41:08;36.50;51.80
212;DHT22;16228;48.800;9.002;2023-10-08T13:43:41;36.10;53.20
212;DHT22;16228;48.800;9.002;2023-10-08T13:46:12;35.60;54.10
212;DHT22;16228;48.800;9.002;2023-10-08T13:48:40;35.00;57.60
212;DHT22;16228;48.800;9.002;2023-10-08T13:51:09;34.70;61.00
212;DHT22;16228;48.800;9.002;2023-10-08T13:53:39;34.30;57.20
212;DHT22;16228;48.800;9.002;2023-10-08T13:56:11;34.10;58.00
212;DHT22;16228;48.800;9.002;2023-10-08T13:58:39;33.80;59.30
212;DHT22;16228;48.800;9.002;2023-10-08T14:01:12;33.60;58.70
212;DHT22;16228;48.800;9.002;2023-10-08T14:03:46;33.10;60.00
212;DHT22;16228;48.800;9.002;2023-10-08T14:06:15;32.30;60.90
212;DHT22;16228;48.800;9.002;2023-10-08T14:08:43;31.30;59.80
212;DHT22;16228;48.800;9.002;2023-10-08T14:11:18;30.60;60.50
212;DHT22;16228;48.800;9.002;2023-10-08T14:13:45;29.90;61.70
212;DHT22;16228;48.800;9.002;2023-10-08T14:16:14;29.50;64.50
212;DHT22;16228;48.800;9.002;2023-10-08T14:18:43;29.10;63.40
212;DHT22;16228;48.800;9.002;2023-10-08T14:21:17;28.60;66.20
212;DHT22;16228;48.800;9.002;2023-10-08T14:23:44;28.00;68.70
212;DHT22;16228;48.800;9.002;2023-10-08T14:26:13;27.50;68.20
212;DHT22;16228;48.800;9.002;2023-10-08T14:28:41;27.10;67.10
212;DHT22;16228;48.800;9.002;2023-10-08T14:31:17;26.90;66.30
212;DHT22;16228;48.800;9.002;2023-10-08T14:33:48;26.60;67.90
212;DHT22;16228;48.800;9.002;2023-10-08T14:36:32;26.50;68.00
212;DHT22;16228;48.800;9.002;2023-10-08T14:39:17;26.30;70.50
212;DHT22;16228;48.800;9.002;2023-10-08T14:42:10;26.10;72.70
212;DHT22;16228;48.800;9.002;2023-10-08T14:44:55;25.80;73.00
212;DHT22;16228;48.800;9.002;2023-10-08T14:47:22;25.60;75.80
212;DHT22;16228;48.800;9.002;2023-10-08T14:49:49;25.30;77.90
212;DHT22;16228;48.800;9.002;2023-10-08T14:52:18;25.00;75.60
212;DHT22;16228;48.800;9.002;2023-10-08T14:54:45;24.60;77.10
212;DHT22;16228;48.800;9.002;2023-10-08T14:57:12;24.40;78.00
212;DHT22;16228;48.800;9.002;2023-10-08T14:59:40;24.30;77.20
212;DHT22;16228;48.800;9.002;2023-10-08T15:02:08;24.20;78.00
212;DHT22;16228;48.800;9.002;2023-10-08T15:04:36;24.10;79.00
212;DHT22;16228;48.800;9.002;2023-10-08T15:07:05;24.00;78.80
212;DHT22;16228;48.800;9.002;2023-10-08T15:09:35;24.00;79.00
212;DHT22;16228;48.800;9.002;2023-10-08T15:12:03;23.90;79.50
212;DHT22;16228;48.800;9.002;2023-10-08T15:14:31;23.80;80.60
212;DHT22;16228;48.800;9.002;2023-10-08T15:16:59;23.80;80.10
212;DHT22;16228;48.800;9.002;2023-10-08T15:19:26;23.70;81.80
212;DHT22;16228;48.800;9.002;2023-10-08T15:21:54;23.60;81.90
212;DHT22;16228;48.800;9.002;2023-10-08T15:24:24;23.50;80.20
212;DHT22;16228;48.800;9.002;2023-10-08T15:26:53;23.50;82.20
212;DHT22;16228;48.800;9.002;2023-10-08T15:29:21;23.40;82.00
212;DHT22;16228;48.800;9.002;2023-10-08T15:31:51;23.40;82.60
212;DHT22;16228;48.800;9.002;2023-10-08T15:34:18;23.40;83.60
212;DHT22;16228;48.800;9.002;2023-10-08T15:36:45;23.40;83.20
212;DHT22;16228;48.800;9.002;2023-10-08T15:39:12;23.50;83.10
212;DHT22;16228;48.800;9.002;2023-10-08T15:41:39;23.60;83.60
212;DHT22;16228;48.800;9.002;2023-10-08T15:44:10;23.60;86.40
212;DHT22;16228;48.800;9.002;2023-10-08T15:46:37;23.60;88.10
212;DHT22;16228;48.800;9.002;2023-10-08T15:49:04;23.70;86.20
212;DHT22;16228;48.800;9.002;2023-10-08T15:51:31;23.70;85.60
212;DHT22;16228;48.800;9.002;2023-10-08T15:53:59;23.70;85.10
212;DHT22;16228;48.800;9.002;2023-10-08T15:56:26;23.80;85.90
212;DHT22;16228;48.800;9.002;2023-10-08T15:58:53;23.80;87.30
212;DHT22;16228;48.800;9.002;2023-10-08T16:01:21;23.70;89.00
212;DHT22;16228;48.800;9.002;2023-10-08T16:03:49;23.70;89.10
212;DHT22;16228;48.800;9.002;2023-10-08T16:06:16;23.60;88.90
212;DHT22;16228;48.800;9.002;2023-10-08T16:08:44;23.50;89.30
212;DHT22;16228;48.800;9.002;2023-10-08T16:11:11;23.40;89.60
212;DHT22;16228;48.800;9.002;2023-10-08T16:13:38;23.30;88.40
212;DHT22;16228;48.800;9.002;2023-10-08T16:16:05;23.20;88.50
212;DHT22;16228;48.800;9.002;2023-10-08T16:18:35;23.10;89.80
212;DHT22;16228;48.800;9.002;2023-10-08T16:21:03;23.00;89.40
212;DHT22;16228;48.800;9.002;2023-10-08T16:23:31;22.80;89.50
212;DHT22;16228;48.800;9.002;2023-10-08T16:26:01;22.60;89.80
212;DHT22;16228;48.800;9.002;2023-10-08T16:28:28;22.50;89.90
212;DHT22;16228;48.800;9.002;2023-10-08T16:30:56;22.40;90.40
212;DHT22;16228;48.800;9.002;2023-10-08T16:33:24;22.20;90.60